sensor_id;sensor_type;location;lat;lon;timestamp;pressure;altitude;pressure_sealevel;temperature;humidity
60417;BME280;46263;44.726;10.396;2023-01-26T00:01:08;100815.22;;;7.45;66.71
60417;BME280;46263;44.726;10.396;2023-01-26T00:03:35;100809.13;;;7.41;67.76
60417;BME280;46263;44.726;10.396;2023-01-26T00:06:09;100812.66;;;7.42;66.91
60417;BME280;46263;44.726;10.396;2023-01-26T00:08:40;100812.94;;;7.44;66.38
60417;BME280;46263;44.726;10.396;2023-01-26T00:11:08;100805.34;;;7.44;66.36
60417;BME280;46263;44.726;10.396;2023-01-26T00:13:35;100810.66;;;7.42;66.38
60417;BME280;46263;44.726;10.396;2023-01-26T00:16:01;100805.31;;;7.39;66.32
60417;BME280;46263;44.726;10.396;2023-01-26T00:18:28;100807.03;;;7.36;65.87
60417;BME280;46263;44.726;10.396;2023-01-26T00:20:55;100796.19;;;7.38;65.83
60417;BME280;46263;44.726;10.396;2023-01-26T00:23:22;100804.00;;;7.34;66.39
60417;BME280;46263;44.726;10.396;2023-01-26T00:25:47;100792.66;;;7.38;66.32
60417;BME280;46263;44.726;10.396;2023-01-26T00:28:13;100795.09;;;7.30;66.29
60417;BME280;46263;44.726;10.396;2023-01-26T00:30:38;100790.03;;;7.29;66.82
60417;BME280;46263;44.726;10.396;2023-01-26T00:33:04;100784.44;;;7.23;66.15
60417;BME280;46263;44.726;10.396;2023-01-26T00:35:29;100787.91;;;7.18;66.65
60417;BME280;46263;44.726;10.396;2023-01-26T00:37:55;100779.09;;;7.20;66.83
60417;BME280;46263;44.726;10.396;2023-01-26T00:40:21;100778.88;;;7.23;66.09
60417;BME280;46263;44.726;10.396;2023-01-26T00:42:46;100777.91;;;7.26;66.07
60417;BME280;46263;44.726;10.396;2023-01-26T00:45:12;100779.69;;;7.29;66.43
60417;BME280;46263;44.726;10.396;2023-01-26T00:47:37;100776.41;;;7.31;65.99
60417;BME280;46263;44.726;10.396;2023-01-26T00:50:03;100777.91;;;7.26;66.28
60417;BME280;46263;44.726;10.396;2023-01-26T00:52:29;100771.28;;;7.24;66.06
60417;BME280;46263;44.726;10.396;2023-01-26T00:54:55;100783.59;;;7.17;65.82
60417;BME280;46263;44.726;10.396;2023-01-26T00:57:20;100773.47;;;7.14;65.94
60417;BME280;46263;44.726;10.396;2023-01-26T00:59:46;100768.41;;;7.13;66.12
60417;BME280;46263;44.726;10.396;2023-01-26T01:02:11;100762.78;;;7.08;66.39
60417;BME280;46263;44.726;10.396;2023-01-26T01:04:37;100760.06;;;7.13;66.36
60417;BME280;46263;44.726;10.396;2023-01-26T01:07:05;100762.34;;;7.14;66.42
60417;BME280;46263;44.726;10.396;2023-01-26T01:09:31;100759.06;;;7.16;66.62
60417;BME280;46263;44.726;10.396;2023-01-26T01:11:56;100763.31;;;7.11;66.49
60417;BME280;46263;44.726;10.396;2023-01-26T01:14:22;100769.16;;;7.13;66.31
60417;BME280;46263;44.726;10.396;2023-01-26T01:16:48;100756.56;;;7.18;66.49
60417;BME280;46263;44.726;10.396;2023-01-26T01:19:16;100767.19;;;7.19;66.79
60417;BME280;46263;44.726;10.396;2023-01-26T01:21:42;100768.47;;;7.18;66.87
60417;BME280;46263;44.726;10.396;2023-01-26T01:24:08;100767.69;;;7.18;66.98
60417;BME280;46263;44.726;10.396;2023-01-26T01:26:34;100761.41;;;7.23;66.69
60417;BME280;46263;44.726;10.396;2023-01-26T01:28:59;100764.97;;;7.23;66.94
60417;BME280;46263;44.726;10.396;2023-01-26T01:31:25;100767.25;;;7.25;66.84
60417;BME280;46263;44.726;10.396;2023-01-26T01:33:51;100766.50;;;7.24;66.95
60417;BME280;46263;44.726;10.396;2023-01-26T01:36:19;100757.66;;;7.26;67.08
60417;BME280;46263;44.726;10.396;2023-01-26T01:38:46;100758.16;;;7.24;67.41
60417;BME280;46263;44.726;10.396;2023-01-26T01:41:13;100754.94;;;7.31;67.39
60417;BME280;46263;44.726;10.396;2023-01-26T01:43:39;100750.13;;;7.32;66.73
60417;BME280;46263;44.726;10.396;2023-01-26T01:46:32;100746.31;;;7.29;66.93
60417;BME280;46263;44.726;10.396;2023-01-26T01:49:04;100751.56;;;7.22;66.75
60417;BME280;46263;44.726;10.396;2023-01-26T01:51:42;100757.88;;;7.22;66.61
60417;BME280;46263;44.726;10.396;2023-01-26T01:54:11;100753.84;;;7.23;67.17
60417;BME280;46263;44.726;10.396;2023-01-26T01:56:41;100749.81;;;7.24;67.12
60417;BME280;46263;44.726;10.396;2023-01-26T01:59:09;100748.81;;;7.27;67.46
60417;BME280;46263;44.726;10.396;2023-01-26T02:01:35;100742.56;;;7.32;67.41
60417;BME280;46263;44.726;10.396;2023-01-26T02:04:03;100750.13;;;7.32;66.66
60417;BME280;46263;44.726;10.396;2023-01-26T02:06:38;100747.09;;;7.30;66.52
60417;BME280;46263;44.726;10.396;2023-01-26T02:09:05;100752.66;;;7.30;67.07
60417;BME280;46263;44.726;10.396;2023-01-26T02:11:38;100752.44;;;7.33;66.84
60417;BME280;46263;44.726;10.396;2023-01-26T02:14:07;100734.47;;;7.29;67.33
60417;BME280;46263;44.726;10.396;2023-01-26T02:16:35;100737.47;;;7.31;67.08
60417;BME280;46263;44.726;10.396;2023-01-26T02:19:01;100736.47;;;7.28;66.47
60417;BME280;46263;44.726;10.396;2023-01-26T02:21:27;100737.72;;;7.27;66.93
60417;BME280;46263;44.726;10.396;2023-01-26T02:24:15;100736.22;;;7.26;67.15
60417;BME280;46263;44.726;10.396;2023-01-26T02:26:44;100727.31;;;7.22;66.91
60417;BME280;46263;44.726;10.396;2023-01-26T02:29:10;100723.78;;;7.22;66.72
60417;BME280;46263;44.726;10.396;2023-01-26T02:31:37;100718.44;;;7.18;67.02
60417;BME280;46263;44.726;10.396;2023-01-26T02:34:04;100717.88;;;7.14;67.10
60417;BME280;46263;44.726;10.396;2023-01-26T02:36:31;100723.22;;;7.18;66.61
60417;BME280;46263;44.726;10.396;2023-01-26T02:39:15;100714.66;;;7.21;66.38
60417;BME280;46263;44.726;10.396;2023-01-26T02:41:44;100713.97;;;7.26;67.13
60417;BME280;46263;44.726;10.396;2023-01-26T02:44:29;100692.25;;;7.30;67.04
60417;BME280;46263;44.726;10.396;2023-01-26T02:46:56;100705.44;;;7.35;67.11
60417;BME280;46263;44.726;10.396;2023-01-26T02:49:21;100696.34;;;7.35;66.64
60417;BME280;46263;44.726;10.396;2023-01-26T02:52:06;100687.78;;;7.38;66.58
60417;BME280;46263;44.726;10.396;2023-01-26T02:54:31;100689.31;;;7.39;66.92
60417;BME280;46263;44.726;10.396;2023-01-26T02:57:15;100685.28;;;7.40;67.52
60417;BME280;46263;44.726;10.396;2023-01-26T02:59:41;100683.19;;;7.35;67.34
60417;BME280;46263;44.726;10.396;2023-01-26T03:02:07;100684.19;;;7.32;67.68
60417;BME280;46263;44.726;10.396;2023-01-26T03:04:32;100676.84;;;7.29;67.69
60417;BME280;46263;44.726;10.396;2023-01-26T03:06:58;100679.97;;;7.11;67.98
60417;BME280;46263;44.726;10.396;2023-01-26T03:09:23;100676.66;;;7.08;67.80
60417;BME280;46263;44.726;10.396;2023-01-26T03:11:49;100668.38;;;7.13;67.92
60417;BME280;46263;44.726;10.396;2023-01-26T03:14:15;100662.75;;;7.08;67.77
60417;BME280;46263;44.726;10.396;2023-01-26T03:16:41;100666.38;;;6.88;67.93
60417;BME280;46263;44.726;10.396;2023-01-26T03:19:10;100660.38;;;6.95;68.31
60417;BME280;46263;44.726;10.396;2023-01-26T03:22:15;100664.28;;;7.09;67.74
60417;BME280;46263;44.726;10.396;2023-01-26T03:24:59;100651.19;;;7.14;67.31
60417;BME280;46263;44.726;10.396;2023-01-26T03:27:47;100643.41;;;7.18;67.57
60417;BME280;46263;44.726;10.396;2023-01-26T03:30:15;100647.16;;;7.15;67.77
60417;BME280;46263;44.726;10.396;2023-01-26T03:32:41;100645.41;;;7.18;67.60
60417;BME280;46263;44.726;10.396;2023-01-26T03:35:08;100638.88;;;7.21;67.85
60417;BME280;46263;44.726;10.396;2023-01-26T03:37:43;100640.63;;;7.18;67.32
60417;BME280;46263;44.726;10.396;2023-01-26T03:40:12;100637.63;;;7.22;67.38
60417;BME280;46263;44.726;10.396;2023-01-26T03:42:56;100635.06;;;7.18;67.61
60417;BME280;46263;44.726;10.396;2023-01-26T03:45:40;100625.22;;;7.23;67.52
60417;BME280;46263;44.726;10.396;2023-01-26T03:48:24;100626.28;;;7.25;67.95
60417;BME280;46263;44.726;10.396;2023-01-26T03:51:08;100626.00;;;7.23;66.77
60417;BME280;46263;44.726;10.396;2023-01-26T03:53:52;100616.41;;;7.24;66.89
60417;BME280;46263;44.726;10.396;2023-01-26T03:56:36;100617.91;;;7.20;66.86
60417;BME280;46263;44.726;10.396;2023-01-26T03:59:03;100609.06;;;7.21;66.77
60417;BME280;46263;44.726;10.396;2023-01-26T04:01:39;100607.00;;;7.16;66.23
60417;BME280;46263;44.726;10.396;2023-01-26T04:04:07;100611.03;;;7.15;66.55
60417;BME280;46263;44.726;10.396;2023-01-26T04:06:51;100602.94;;;7.12;66.83
60417;BME280;46263;44.726;10.396;2023-01-26T04:09:37;100604.13;;;7.06;66.30
60417;BME280;46263;44.726;10.396;2023-01-26T04:12:04;100603.38;;;7.05;66.42
60417;BME280;46263;44.726;10.396;2023-01-26T04:14:30;100601.63;;;7.08;66.34
60417;BME280;46263;44.726;10.396;2023-01-26T04:17:15;100597.84;;;7.05;66.30
60417;BME280;46263;44.726;10.396;2023-01-26T04:20:00;100595.44;;;6.93;66.51
60417;BME280;46263;44.726;10.396;2023-01-26T04:22:43;100603.00;;;6.92;66.24
60417;BME280;46263;44.726;10.396;2023-01-26T04:25:14;100597.69;;;6.89;66.12
60417;BME280;46263;44.726;10.396;2023-01-26T04:27:40;100597.16;;;6.85;66.71
60417;BME280;46263;44.726;10.396;2023-01-26T04:30:08;100594.38;;;6.85;66.48
60417;BME280;46263;44.726;10.396;2023-01-26T04:32:34;100583.50;;;6.81;66.77
60417;BME280;46263;44.726;10.396;2023-01-26T04:35:00;100592.84;;;6.84;66.87
60417;BME280;46263;44.726;10.396;2023-01-26T04:37:25;100584.00;;;6.85;66.56
60417;BME280;46263;44.726;10.396;2023-01-26T04:39:51;100578.91;;;6.78;66.97
60417;BME280;46263;44.726;10.396;2023-01-26T04:42:17;100574.66;;;6.83;66.89
60417;BME280;46263;44.726;10.396;2023-01-26T04:44:42;100577.72;;;6.85;67.07
60417;BME280;46263;44.726;10.396;2023-01-26T04:47:08;100573.47;;;6.89;67.04
60417;BME280;46263;44.726;10.396;2023-01-26T04:49:33;100575.72;;;6.91;67.65
60417;BME280;46263;44.726;10.396;2023-01-26T04:51:59;100580.03;;;6.92;67.09
60417;BME280;46263;44.726;10.396;2023-01-26T04:54:25;100578.50;;;6.91;67.52
60417;BME280;46263;44.726;10.396;2023-01-26T04:56:50;100577.25;;;6.92;67.44
60417;BME280;46263;44.726;10.396;2023-01-26T04:59:16;100575.50;;;6.94;67.61
60417;BME280;46263;44.726;10.396;2023-01-26T05:01:42;100579.31;;;6.97;67.28
60417;BME280;46263;44.726;10.396;2023-01-26T05:04:09;100569.72;;;6.98;67.17
60417;BME280;46263;44.726;10.396;2023-01-26T05:06:36;100574.81;;;7.05;66.80
60417;BME280;46263;44.726;10.396;2023-01-26T05:09:03;100567.00;;;7.03;66.99
60417;BME280;46263;44.726;10.396;2023-01-26T05:11:29;100566.78;;;7.07;66.35
60417;BME280;46263;44.726;10.396;2023-01-26T05:13:54;100561.22;;;7.07;66.86
60417;BME280;46263;44.726;10.396;2023-01-26T05:16:20;100555.94;;;7.09;66.10
60417;BME280;46263;44.726;10.396;2023-01-26T05:18:45;100561.75;;;7.11;66.27
60417;BME280;46263;44.726;10.396;2023-01-26T05:21:11;100567.03;;;7.09;65.74
60417;BME280;46263;44.726;10.396;2023-01-26T05:23:37;100564.75;;;7.07;66.31
60417;BME280;46263;44.726;10.396;2023-01-26T05:26:03;100564.25;;;7.09;65.98
60417;BME280;46263;44.726;10.396;2023-01-26T05:28:28;100569.03;;;7.08;66.02
60417;BME280;46263;44.726;10.396;2023-01-26T05:30:54;100568.53;;;7.04;66.19
60417;BME280;46263;44.726;10.396;2023-01-26T05:33:20;100567.50;;;7.02;66.20
60417;BME280;46263;44.726;10.396;2023-01-26T05:35:50;100570.28;;;7.02;66.26
60417;BME280;46263;44.726;10.396;2023-01-26T05:38:16;100576.31;;;7.00;66.73
60417;BME280;46263;44.726;10.396;2023-01-26T05:40:42;100569.22;;;6.94;66.89
60417;BME280;46263;44.726;10.396;2023-01-26T05:43:08;100577.78;;;6.96;66.87
60417;BME280;46263;44.726;10.396;2023-01-26T05:45:34;100579.09;;;7.00;66.78
60417;BME280;46263;44.726;10.396;2023-01-26T05:48:00;100577.34;;;7.03;66.89
60417;BME280;46263;44.726;10.396;2023-01-26T05:50:26;100575.06;;;7.01;66.80
60417;BME280;46263;44.726;10.396;2023-01-26T05:52:51;100579.09;;;7.00;67.10
60417;BME280;46263;44.726;10.396;2023-01-26T05:55:17;100572.31;;;7.07;66.99
60417;BME280;46263;44.726;10.396;2023-01-26T05:57:43;100583.44;;;7.07;66.34
60417;BME280;46263;44.726;10.396;2023-01-26T06:00:10;100580.66;;;7.07;66.17
60417;BME280;46263;44.726;10.396;2023-01-26T06:02:35;100577.88;;;7.07;66.22
60417;BME280;46263;44.726;10.396;2023-01-26T06:05:01;100572.28;;;7.01;66.79
60417;BME280;46263;44.726;10.396;2023-01-26T06:07:27;100565.75;;;7.04;66.75
60417;BME280;46263;44.726;10.396;2023-01-26T06:09:52;100557.41;;;7.04;66.78
60417;BME280;46263;44.726;10.396;2023-01-26T06:12:19;100564.72;;;7.02;66.70
60417;BME280;46263;44.726;10.396;2023-01-26T06:14:45;100565.25;;;7.06;67.15
60417;BME280;46263;44.726;10.396;2023-01-26T06:17:11;100566.78;;;7.07;66.88
60417;BME280;46263;44.726;10.396;2023-01-26T06:19:36;100561.22;;;7.07;66.83
60417;BME280;46263;44.726;10.396;2023-01-26T06:22:03;100558.47;;;7.12;66.63
60417;BME280;46263;44.726;10.396;2023-01-26T06:24:29;100547.38;;;7.12;66.82
60417;BME280;46263;44.726;10.396;2023-01-26T06:26:54;100549.63;;;7.13;66.61
60417;BME280;46263;44.726;10.396;2023-01-26T06:29:20;100550.41;;;7.14;66.48
60417;BME280;46263;44.726;10.396;2023-01-26T06:31:45;100553.66;;;7.12;66.37
60417;BME280;46263;44.726;10.396;2023-01-26T06:34:11;100559.22;;;7.12;66.11
60417;BME280;46263;44.726;10.396;2023-01-26T06:36:36;100559.50;;;7.14;66.42
60417;BME280;46263;44.726;10.396;2023-01-26T06:39:02;100559.50;;;7.14;66.76
60417;BME280;46263;44.726;10.396;2023-01-26T06:41:28;100563.53;;;7.13;66.79
60417;BME280;46263;44.726;10.396;2023-01-26T06:43:54;100551.91;;;7.15;66.64
60417;BME280;46263;44.726;10.396;2023-01-26T06:46:19;100545.59;;;7.14;66.46
60417;BME280;46263;44.726;10.396;2023-01-26T06:48:45;100554.91;;;7.11;65.96
60417;BME280;46263;44.726;10.396;2023-01-26T06:53:42;100551.84;;;7.04;66.02
60417;BME280;46263;44.726;10.396;2023-01-26T06:56:08;100546.81;;;7.03;66.33
60417;BME280;46263;44.726;10.396;2023-01-26T06:58:34;100547.97;;;6.91;66.16
60417;BME280;46263;44.726;10.396;2023-01-26T07:00:59;100563.38;;;6.92;66.47
60417;BME280;46263;44.726;10.396;2023-01-26T07:03:25;100551.25;;;6.95;66.44
60417;BME280;46263;44.726;10.396;2023-01-26T07:05:50;100548.97;;;6.93;66.63
60417;BME280;46263;44.726;10.396;2023-01-26T07:08:16;100546.44;;;6.90;66.17
60417;BME280;46263;44.726;10.396;2023-01-26T07:10:42;100552.53;;;6.94;66.71
60417;BME280;46263;44.726;10.396;2023-01-26T07:13:07;100542.41;;;6.91;66.68
60417;BME280;46263;44.726;10.396;2023-01-26T07:15:33;100544.69;;;6.92;66.69
60417;BME280;46263;44.726;10.396;2023-01-26T07:17:59;100543.75;;;7.01;67.74
60417;BME280;46263;44.726;10.396;2023-01-26T07:20:25;100544.03;;;7.08;67.09
60417;BME280;46263;44.726;10.396;2023-01-26T07:22:50;100536.75;;;7.11;66.89
60417;BME280;46263;44.726;10.396;2023-01-26T07:25:17;100538.75;;;7.10;66.52
60417;BME280;46263;44.726;10.396;2023-01-26T07:27:42;100536.25;;;7.12;66.23
60417;BME280;46263;44.726;10.396;2023-01-26T07:30:09;100540.06;;;7.14;66.96
60417;BME280;46263;44.726;10.396;2023-01-26T07:32:35;100541.56;;;7.15;67.31
60417;BME280;46263;44.726;10.396;2023-01-26T07:35:00;100547.22;;;7.26;67.27
60417;BME280;46263;44.726;10.396;2023-01-26T07:37:27;100549.72;;;7.24;65.55
60417;BME280;46263;44.726;10.396;2023-01-26T07:39:53;100553.53;;;7.27;65.98
60417;BME280;46263;44.726;10.396;2023-01-26T07:42:18;100555.56;;;7.32;66.00
60417;BME280;46263;44.726;10.396;2023-01-26T07:44:44;100555.34;;;7.35;66.33
60417;BME280;46263;44.726;10.396;2023-01-26T07:47:09;100554.34;;;7.38;66.04
60417;BME280;46263;44.726;10.396;2023-01-26T07:49:35;100551.06;;;7.40;66.00
60417;BME280;46263;44.726;10.396;2023-01-26T07:52:01;100544.28;;;7.46;65.99
60417;BME280;46263;44.726;10.396;2023-01-26T07:54:26;100545.59;;;7.51;65.24
60417;BME280;46263;44.726;10.396;2023-01-26T07:56:52;100545.81;;;7.47;65.18
60417;BME280;46263;44.726;10.396;2023-01-26T07:59:19;100539.75;;;7.49;65.10
60417;BME280;46263;44.726;10.396;2023-01-26T08:01:48;100546.53;;;7.37;66.12
60417;BME280;46263;44.726;10.396;2023-01-26T08:04:14;100548.09;;;7.49;66.72
60417;BME280;46263;44.726;10.396;2023-01-26T08:06:39;100548.63;;;7.53;66.21
60417;BME280;46263;44.726;10.396;2023-01-26T08:09:05;100546.63;;;7.59;67.30
60417;BME280;46263;44.726;10.396;2023-01-26T08:11:30;100546.94;;;7.66;66.10
60417;BME280;46263;44.726;10.396;2023-01-26T08:13:56;100544.66;;;7.70;66.30
60417;BME280;46263;44.726;10.396;2023-01-26T08:16:22;100540.13;;;7.73;66.47
60417;BME280;46263;44.726;10.396;2023-01-26T08:18:47;100546.72;;;7.75;65.41
60417;BME280;46263;44.726;10.396;2023-01-26T08:21:15;100557.84;;;7.81;66.20
60417;BME280;46263;44.726;10.396;2023-01-26T08:23:41;100548.00;;;7.85;65.89
60417;BME280;46263;44.726;10.396;2023-01-26T08:26:10;100554.84;;;7.89;65.29
60417;BME280;46263;44.726;10.396;2023-01-26T08:28:37;100543.50;;;7.93;65.41
60417;BME280;46263;44.726;10.396;2023-01-26T08:31:11;100543.75;;;7.95;64.69
60417;BME280;46263;44.726;10.396;2023-01-26T08:33:39;100548.56;;;8.00;64.97
60417;BME280;46263;44.726;10.396;2023-01-26T08:36:08;100549.38;;;8.06;65.61
60417;BME280;46263;44.726;10.396;2023-01-26T08:38:35;100548.34;;;8.03;65.83
60417;BME280;46263;44.726;10.396;2023-01-26T08:41:01;100553.44;;;8.10;65.67
60417;BME280;46263;44.726;10.396;2023-01-26T08:43:27;100552.91;;;8.12;65.07
60417;BME280;46263;44.726;10.396;2023-01-26T08:45:53;100549.19;;;8.15;65.07
60417;BME280;46263;44.726;10.396;2023-01-26T08:48:19;100544.88;;;8.19;65.46
60417;BME280;46263;44.726;10.396;2023-01-26T08:50:45;100534.28;;;8.29;64.97
60417;BME280;46263;44.726;10.396;2023-01-26T08:53:11;100539.84;;;8.34;65.82
60417;BME280;46263;44.726;10.396;2023-01-26T08:55:36;100540.59;;;8.35;65.92
60417;BME280;46263;44.726;10.396;2023-01-26T08:58:02;100541.88;;;8.39;65.20
60417;BME280;46263;44.726;10.396;2023-01-26T09:00:28;100534.28;;;8.45;65.20
60417;BME280;46263;44.726;10.396;2023-01-26T09:03:02;100534.03;;;8.49;65.97
60417;BME280;46263;44.726;10.396;2023-01-26T09:05:31;100539.13;;;8.56;65.73
60417;BME280;46263;44.726;10.396;2023-01-26T09:07:57;100543.19;;;8.60;65.43
60417;BME280;46263;44.726;10.396;2023-01-26T09:10:22;100544.97;;;8.69;65.52
60417;BME280;46263;44.726;10.396;2023-01-26T09:12:48;100537.09;;;8.72;65.77
60417;BME280;46263;44.726;10.396;2023-01-26T09:15:14;100536.09;;;8.70;65.58
60417;BME280;46263;44.726;10.396;2023-01-26T09:17:40;100532.81;;;8.66;65.68
60417;BME280;46263;44.726;10.396;2023-01-26T09:20:09;100536.59;;;8.58;66.06
60417;BME280;46263;44.726;10.396;2023-01-26T09:22:35;100537.84;;;8.57;65.63
60417;BME280;46263;44.726;10.396;2023-01-26T09:25:00;100538.09;;;8.59;65.81
60417;BME280;46263;44.726;10.396;2023-01-26T09:27:26;100536.59;;;8.69;66.23
60417;BME280;46263;44.726;10.396;2023-01-26T09:29:52;100541.66;;;8.75;66.52
60417;BME280;46263;44.726;10.396;2023-01-26T09:32:18;100535.09;;;8.78;66.04
60417;BME280;46263;44.726;10.396;2023-01-26T09:34:44;100548.78;;;8.82;66.36
60417;BME280;46263;44.726;10.396;2023-01-26T09:37:09;100545.47;;;8.83;66.63
60417;BME280;46263;44.726;10.396;2023-01-26T09:39:35;100542.16;;;8.90;66.48
60417;BME280;46263;44.726;10.396;2023-01-26T09:44:33;100557.13;;;8.93;66.07
60417;BME280;46263;44.726;10.396;2023-01-26T09:47:25;100541.91;;;8.99;66.00
60417;BME280;46263;44.726;10.396;2023-01-26T09:50:00;100549.75;;;9.06;66.00
60417;BME280;46263;44.726;10.396;2023-01-26T09:52:36;100549.75;;;9.12;65.94
60417;BME280;46263;44.726;10.396;2023-01-26T09:55:13;100549.00;;;9.22;65.40
60417;BME280;46263;44.726;10.396;2023-01-26T09:58:03;100544.94;;;9.29;65.07
60417;BME280;46263;44.726;10.396;2023-01-26T10:00:38;100544.13;;;9.39;63.54
60417;BME280;46263;44.726;10.396;2023-01-26T10:06:28;100536.50;;;9.56;62.38
60417;BME280;46263;44.726;10.396;2023-01-26T10:08:59;100532.94;;;9.61;62.40
60417;BME280;46263;44.726;10.396;2023-01-26T10:11:30;100529.38;;;9.66;62.71
60417;BME280;46263;44.726;10.396;2023-01-26T10:14:18;100535.22;;;9.62;61.50
60417;BME280;46263;44.726;10.396;2023-01-26T10:16:48;100526.31;;;9.69;61.67
60417;BME280;46263;44.726;10.396;2023-01-26T10:21:49;100516.16;;;9.72;61.17
60417;BME280;46263;44.726;10.396;2023-01-26T10:24:19;100517.16;;;9.74;61.36
60417;BME280;46263;44.726;10.396;2023-01-26T10:26:46;100511.28;;;9.83;61.22
60417;BME280;46263;44.726;10.396;2023-01-26T10:29:15;100505.41;;;9.87;60.44
60417;BME280;46263;44.726;10.396;2023-01-26T10:31:41;100512.53;;;9.88;59.11
60417;BME280;46263;44.726;10.396;2023-01-26T10:34:15;100502.59;;;9.92;58.73
60417;BME280;46263;44.726;10.396;2023-01-26T10:36:44;100507.41;;;9.97;57.68
60417;BME280;46263;44.726;10.396;2023-01-26T10:39:12;100497.00;;;10.03;57.69
60417;BME280;46263;44.726;10.396;2023-01-26T10:41:39;100508.38;;;10.11;58.39
60417;BME280;46263;44.726;10.396;2023-01-26T10:46:40;100494.31;;;10.27;59.31
60417;BME280;46263;44.726;10.396;2023-01-26T10:51:34;100491.97;;;10.36;58.98
60417;BME280;46263;44.726;10.396;2023-01-26T10:54:13;100481.28;;;10.40;57.25
60417;BME280;46263;44.726;10.396;2023-01-26T11:02:33;100471.44;;;10.63;55.07
60417;BME280;46263;44.726;10.396;2023-01-26T11:07:36;100460.88;;;10.80;52.90
60417;BME280;46263;44.726;10.396;2023-01-26T11:13:14;100452.66;;;10.88;53.83
60417;BME280;46263;44.726;10.396;2023-01-26T11:15:44;100449.53;;;10.97;55.54
60417;BME280;46263;44.726;10.396;2023-01-26T11:18:21;100446.44;;;11.00;51.40
60417;BME280;46263;44.726;10.396;2023-01-26T11:20:52;100439.22;;;11.10;52.10
60417;BME280;46263;44.726;10.396;2023-01-26T11:34:55;100422.84;;;11.19;52.23
60417;BME280;46263;44.726;10.396;2023-01-26T11:37:46;100428.28;;;11.12;52.08
60417;BME280;46263;44.726;10.396;2023-01-26T11:40:47;100426.41;;;10.96;52.89
60417;BME280;46263;44.726;10.396;2023-01-26T11:56:47;100393.94;;;10.88;52.85
60417;BME280;46263;44.726;10.396;2023-01-26T11:59:25;100390.41;;;10.87;52.96
60417;BME280;46263;44.726;10.396;2023-01-26T12:02:23;100383.94;;;10.98;54.17
60417;BME280;46263;44.726;10.396;2023-01-26T12:04:45;100379.31;;;11.00;52.43
60417;BME280;46263;44.726;10.396;2023-01-26T12:07:18;100366.75;;;11.12;52.61
60417;BME280;46263;44.726;10.396;2023-01-26T12:09:46;100369.88;;;11.27;52.67
60417;BME280;46263;44.726;10.396;2023-01-26T12:12:42;100360.56;;;11.37;51.11
60417;BME280;46263;44.726;10.396;2023-01-26T12:15:21;100357.69;;;11.43;51.47
60417;BME280;46263;44.726;10.396;2023-01-26T12:20:59;100358.38;;;11.49;51.56
60417;BME280;46263;44.726;10.396;2023-01-26T12:23:37;100353.72;;;11.57;51.41
60417;BME280;46263;44.726;10.396;2023-01-26T12:26:12;100351.16;;;11.59;50.35
60417;BME280;46263;44.726;10.396;2023-01-26T12:29:02;100340.63;;;11.65;51.72
60417;BME280;46263;44.726;10.396;2023-01-26T12:33:59;100323.38;;;11.61;51.79
60417;BME280;46263;44.726;10.396;2023-01-26T12:39:12;100333.19;;;11.49;51.96
60417;BME280;46263;44.726;10.396;2023-01-26T12:42:05;100322.53;;;11.47;51.04
60417;BME280;46263;44.726;10.396;2023-01-26T12:44:43;100319.44;;;11.51;51.35
60417;BME280;46263;44.726;10.396;2023-01-26T12:47:31;100315.00;;;11.61;50.79
60417;BME280;46263;44.726;10.396;2023-01-26T12:50:08;100310.53;;;11.52;51.33
60417;BME280;46263;44.726;10.396;2023-01-26T12:55:35;100298.63;;;11.46;51.57
60417;BME280;46263;44.726;10.396;2023-01-26T12:58:30;100290.69;;;11.50;51.23
60417;BME280;46263;44.726;10.396;2023-01-26T13:01:15;100288.66;;;11.32;53.23
60417;BME280;46263;44.726;10.396;2023-01-26T13:03:44;100286.00;;;11.40;52.49
60417;BME280;46263;44.726;10.396;2023-01-26T13:06:19;100282.16;;;11.43;51.87
60417;BME280;46263;44.726;10.396;2023-01-26T13:09:00;100281.41;;;11.42;51.63
60417;BME280;46263;44.726;10.396;2023-01-26T13:11:43;100275.97;;;11.31;50.62
60417;BME280;46263;44.726;10.396;2023-01-26T13:24:44;100271.34;;;11.34;50.63
60417;BME280;46263;44.726;10.396;2023-01-26T13:29:55;100260.22;;;11.47;50.26
60417;BME280;46263;44.726;10.396;2023-01-26T13:34:50;100269.91;;;11.46;50.34
60417;BME280;46263;44.726;10.396;2023-01-26T13:38:13;100259.84;;;11.37;50.56
60417;BME280;46263;44.726;10.396;2023-01-26T13:40:36;100257.88;;;11.32;50.22
60417;BME280;46263;44.726;10.396;2023-01-26T13:46:05;100250.47;;;11.35;51.53
60417;BME280;46263;44.726;10.396;2023-01-26T13:48:40;100254.31;;;11.32;51.49
60417;BME280;46263;44.726;10.396;2023-01-26T13:51:09;100262.13;;;11.20;51.51
60417;BME280;46263;44.726;10.396;2023-01-26T13:53:39;100253.78;;;11.15;51.99
60417;BME280;46263;44.726;10.396;2023-01-26T13:56:29;100253.72;;;11.02;51.32
60417;BME280;46263;44.726;10.396;2023-01-26T13:59:16;100243.81;;;11.01;52.59
60417;BME280;46263;44.726;10.396;2023-01-26T14:01:46;100241.56;;;11.00;51.76
60417;BME280;46263;44.726;10.396;2023-01-26T14:04:17;100242.25;;;10.87;52.24
60417;BME280;46263;44.726;10.396;2023-01-26T14:06:48;100251.59;;;10.90;52.40
60417;BME280;46263;44.726;10.396;2023-01-26T14:09:14;100259.56;;;10.86;52.46
60417;BME280;46263;44.726;10.396;2023-01-26T14:11:41;100256.59;;;10.78;51.98
60417;BME280;46263;44.726;10.396;2023-01-26T14:14:19;100253.31;;;10.74;52.74
60417;BME280;46263;44.726;10.396;2023-01-26T14:16:47;100251.84;;;10.73;52.93
60417;BME280;46263;44.726;10.396;2023-01-26T14:19:22;100251.59;;;10.71;52.78
60417;BME280;46263;44.726;10.396;2023-01-26T14:21:49;100248.81;;;10.71;52.67
60417;BME280;46263;44.726;10.396;2023-01-26T14:24:16;100241.94;;;10.72;53.05